sensor_id;sensor_type;location;lat;lon;timestamp;P1;durP1;ratioP1;P2;durP2;ratioP2
73331;SDS011;61560;33.718;73.040;2023-03-15T00:00:17;849.97;;;281.13;;
73331;SDS011;61560;33.718;73.040;2023-03-15T00:02:45;857.20;;;282.08;;
73331;SDS011;61560;33.718;73.040;2023-03-15T00:05:12;858.38;;;282.98;;
73331;SDS011;61560;33.718;73.040;2023-03-15T00:07:38;856.10;;;282.75;;
73331;SDS011;61560;33.718;73.040;2023-03-15T00:10:06;847.65;;;279.58;;
73331;SDS011;61560;33.718;73.040;2023-03-15T00:12:33;858.63;;;284.00;;
73331;SDS011;61560;33.718;73.040;2023-03-15T00:14:59;860.75;;;281.63;;
73331;SDS011;61560;33.718;73.040;2023-03-15T00:17:25;843.17;;;277.67;;
73331;SDS011;61560;33.718;73.040;2023-03-15T00:19:52;849.97;;;279.30;;
73331;SDS011;61560;33.718;73.040;2023-03-15T00:22:19;855.97;;;280.48;;
73331;SDS011;61560;33.718;73.040;2023-03-15T00:24:47;848.90;;;278.13;;
73331;SDS011;61560;33.718;73.040;2023-03-15T00:27:15;856.25;;;281.30;;
73331;SDS011;61560;33.718;73.040;2023-03-15T00:29:41;865.95;;;283.27;;
73331;SDS011;61560;33.718;73.040;2023-03-15T00:32:08;860.58;;;282.35;;
73331;SDS011;61560;33.718;73.040;2023-03-15T00:34:35;860.58;;;284.52;;
73331;SDS011;61560;33.718;73.040;2023-03-15T00:37:01;850.85;;;279.67;;
73331;SDS011;61560;33.718;73.040;2023-03-15T00:39:28;831.28;;;274.35;;
73331;SDS011;61560;33.718;73.040;2023-03-15T00:41:54;832.92;;;274.42;;
73331;SDS011;61560;33.718;73.040;2023-03-15T00:44:24;831.38;;;274.40;;
73331;SDS011;61560;33.718;73.040;2023-03-15T00:46:52;833.88;;;276.63;;
73331;SDS011;61560;33.718;73.040;2023-03-15T00:49:19;837.90;;;275.02;;
73331;SDS011;61560;33.718;73.040;2023-03-15T00:51:47;840.83;;;276.20;;
73331;SDS011;61560;33.718;73.040;2023-03-15T00:54:14;836.05;;;275.60;;
73331;SDS011;61560;33.718;73.040;2023-03-15T00:56:40;840.67;;;278.30;;
73331;SDS011;61560;33.718;73.040;2023-03-15T00:59:07;852.28;;;279.70;;
73331;SDS011;61560;33.718;73.040;2023-03-15T01:01:33;861.75;;;285.30;;
73331;SDS011;61560;33.718;73.040;2023-03-15T01:04:02;874.33;;;288.33;;
73331;SDS011;61560;33.718;73.040;2023-03-15T01:06:29;866.42;;;286.05;;
73331;SDS011;61560;33.718;73.040;2023-03-15T01:08:57;872.10;;;288.67;;
73331;SDS011;61560;33.718;73.040;2023-03-15T01:11:25;866.47;;;285.98;;
73331;SDS011;61560;33.718;73.040;2023-03-15T01:13:53;864.58;;;284.40;;
73331;SDS011;61560;33.718;73.040;2023-03-15T01:16:22;868.08;;;286.50;;
73331;SDS011;61560;33.718;73.040;2023-03-15T01:18:49;869.80;;;288.63;;
73331;SDS011;61560;33.718;73.040;2023-03-15T01:21:18;868.72;;;287.08;;
73331;SDS011;61560;33.718;73.040;2023-03-15T01:23:46;867.85;;;286.05;;
73331;SDS011;61560;33.718;73.040;2023-03-15T01:26:14;872.33;;;289.13;;
73331;SDS011;61560;33.718;73.040;2023-03-15T01:28:42;842.90;;;279.95;;
73331;SDS011;61560;33.718;73.040;2023-03-15T01:33:44;845.30;;;280.45;;
73331;SDS011;61560;33.718;73.040;2023-03-15T01:36:11;843.50;;;279.48;;
73331;SDS011;61560;33.718;73.040;2023-03-15T01:38:39;846.55;;;281.25;;
73331;SDS011;61560;33.718;73.040;2023-03-15T01:41:08;846.90;;;280.95;;
73331;SDS011;61560;33.718;73.040;2023-03-15T01:43:37;855.35;;;282.92;;
73331;SDS011;61560;33.718;73.040;2023-03-15T01:54:50;885.97;;;293.63;;
73331;SDS011;61560;33.718;73.040;2023-03-15T01:57:32;879.45;;;292.70;;
73331;SDS011;61560;33.718;73.040;2023-03-15T02:00:13;881.85;;;291.90;;
73331;SDS011;61560;33.718;73.040;2023-03-15T02:02:53;890.75;;;293.67;;
73331;SDS011;61560;33.718;73.040;2023-03-15T02:05:32;886.58;;;293.63;;
73331;SDS011;61560;33.718;73.040;2023-03-15T02:08:05;889.55;;;291.25;;
73331;SDS011;61560;33.718;73.040;2023-03-15T02:10:36;902.78;;;295.20;;
73331;SDS011;61560;33.718;73.040;2023-03-15T02:13:10;893.67;;;293.88;;
73331;SDS011;61560;33.718;73.040;2023-03-15T02:15:39;903.40;;;294.73;;
73331;SDS011;61560;33.718;73.040;2023-03-15T02:18:15;939.28;;;306.98;;
73331;SDS011;61560;33.718;73.040;2023-03-15T02:23:46;967.67;;;315.15;;
73331;SDS011;61560;33.718;73.040;2023-03-15T02:26:28;962.72;;;313.73;;
73331;SDS011;61560;33.718;73.040;2023-03-15T02:28:59;961.45;;;313.67;;
73331;SDS011;61560;33.718;73.040;2023-03-15T02:31:26;968.95;;;314.48;;
73331;SDS011;61560;33.718;73.040;2023-03-15T02:33:56;974.30;;;314.60;;
73331;SDS011;61560;33.718;73.040;2023-03-15T02:36:25;983.13;;;317.83;;
73331;SDS011;61560;33.718;73.040;2023-03-15T02:38:55;1011.15;;;324.83;;
73331;SDS011;61560;33.718;73.040;2023-03-15T02:41:39;1133.35;;;356.13;;
73331;SDS011;61560;33.718;73.040;2023-03-15T02:46:51;1041.57;;;316.63;;
73331;SDS011;61560;33.718;73.040;2023-03-15T02:49:24;970.47;;;310.02;;
73331;SDS011;61560;33.718;73.040;2023-03-15T02:51:56;1015.67;;;322.70;;
73331;SDS011;61560;33.718;73.040;2023-03-15T02:54:23;1127.80;;;357.63;;
73331;SDS011;61560;33.718;73.040;2023-03-15T02:56:53;1138.88;;;352.13;;
73331;SDS011;61560;33.718;73.040;2023-03-15T02:59:19;1088.43;;;341.73;;
73331;SDS011;61560;33.718;73.040;2023-03-15T03:01:46;1119.20;;;347.08;;
73331;SDS011;61560;33.718;73.040;2023-03-15T03:04:13;1111.85;;;338.40;;
73331;SDS011;61560;33.718;73.040;2023-03-15T03:06:40;1225.85;;;359.77;;
73331;SDS011;61560;33.718;73.040;2023-03-15T03:09:16;1283.65;;;388.58;;
73331;SDS011;61560;33.718;73.040;2023-03-15T03:11:42;1039.35;;;329.23;;
73331;SDS011;61560;33.718;73.040;2023-03-15T03:14:09;1048.90;;;328.17;;
73331;SDS011;61560;33.718;73.040;2023-03-15T03:16:39;1059.10;;;332.42;;
73331;SDS011;61560;33.718;73.040;2023-03-15T03:19:08;1060.20;;;332.15;;
73331;SDS011;61560;33.718;73.040;2023-03-15T03:21:39;1142.47;;;354.13;;
73331;SDS011;61560;33.718;73.040;2023-03-15T03:24:11;1100.78;;;340.00;;
73331;SDS011;61560;33.718;73.040;2023-03-15T03:26:41;1106.47;;;340.10;;
73331;SDS011;61560;33.718;73.040;2023-03-15T03:29:12;1028.38;;;320.60;;
73331;SDS011;61560;33.718;73.040;2023-03-15T03:31:46;1312.05;;;390.85;;
73331;SDS011;61560;33.718;73.040;2023-03-15T03:34:12;1177.50;;;358.48;;
73331;SDS011;61560;33.718;73.040;2023-03-15T03:36:41;1239.43;;;376.10;;
73331;SDS011;61560;33.718;73.040;2023-03-15T03:39:08;1091.72;;;334.65;;
73331;SDS011;61560;33.718;73.040;2023-03-15T03:41:35;1011.75;;;300.17;;
73331;SDS011;61560;33.718;73.040;2023-03-15T03:44:04;1007.50;;;310.02;;
73331;SDS011;61560;33.718;73.040;2023-03-15T03:46:32;892.70;;;282.02;;
73331;SDS011;61560;33.718;73.040;2023-03-15T03:48:58;886.53;;;271.65;;
73331;SDS011;61560;33.718;73.040;2023-03-15T03:51:26;884.13;;;266.58;;
73331;SDS011;61560;33.718;73.040;2023-03-15T03:53:53;926.50;;;290.38;;
73331;SDS011;61560;33.718;73.040;2023-03-15T03:56:19;758.20;;;246.48;;
73331;SDS011;61560;33.718;73.040;2023-03-15T03:58:46;873.22;;;276.05;;
73331;SDS011;61560;33.718;73.040;2023-03-15T04:01:20;728.47;;;241.50;;
73331;SDS011;61560;33.718;73.040;2023-03-15T04:03:50;830.20;;;267.17;;
73331;SDS011;61560;33.718;73.040;2023-03-15T04:06:19;661.83;;;227.50;;
73331;SDS011;61560;33.718;73.040;2023-03-15T04:08:47;766.42;;;255.23;;
73331;SDS011;61560;33.718;73.040;2023-03-15T04:11:19;174.15;;;96.00;;
73331;SDS011;61560;33.718;73.040;2023-03-15T04:13:53;161.07;;;90.82;;
73331;SDS011;61560;33.718;73.040;2023-03-15T04:16:20;130.30;;;69.53;;
73331;SDS011;61560;33.718;73.040;2023-03-15T04:19:12;99.70;;;46.30;;
73331;SDS011;61560;33.718;73.040;2023-03-15T04:21:40;73.00;;;33.63;;
73331;SDS011;61560;33.718;73.040;2023-03-15T04:24:33;95.38;;;45.35;;
73331;SDS011;61560;33.718;73.040;2023-03-15T04:27:06;80.82;;;36.95;;
73331;SDS011;61560;33.718;73.040;2023-03-15T04:29:52;77.00;;;37.33;;
73331;SDS011;61560;33.718;73.040;2023-03-15T04:32:44;70.68;;;34.92;;
73331;SDS011;61560;33.718;73.040;2023-03-15T04:35:24;99.97;;;42.45;;
73331;SDS011;61560;33.718;73.040;2023-03-15T04:38:11;81.80;;;42.65;;
73331;SDS011;61560;33.718;73.040;2023-03-15T04:41:00;84.50;;;41.00;;
73331;SDS011;61560;33.718;73.040;2023-03-15T04:43:47;70.15;;;33.53;;
73331;SDS011;61560;33.718;73.040;2023-03-15T04:46:33;88.63;;;41.45;;
73331;SDS011;61560;33.718;73.040;2023-03-15T04:49:16;87.32;;;42.47;;
73331;SDS011;61560;33.718;73.040;2023-03-15T04:52:16;96.53;;;49.28;;
73331;SDS011;61560;33.718;73.040;2023-03-15T04:55:04;75.68;;;38.28;;
73331;SDS011;61560;33.718;73.040;2023-03-15T04:57:49;78.35;;;39.85;;
73331;SDS011;61560;33.718;73.040;2023-03-15T05:00:33;75.78;;;38.75;;
73331;SDS011;61560;33.718;73.040;2023-03-15T05:03:22;68.97;;;37.80;;
73331;SDS011;61560;33.718;73.040;2023-03-15T05:06:08;80.25;;;40.53;;
73331;SDS011;61560;33.718;73.040;2023-03-15T05:08:46;77.15;;;42.50;;
73331;SDS011;61560;33.718;73.040;2023-03-15T05:11:31;90.25;;;46.25;;
73331;SDS011;61560;33.718;73.040;2023-03-15T05:14:19;88.45;;;43.33;;
73331;SDS011;61560;33.718;73.040;2023-03-15T05:17:04;70.90;;;40.83;;
73331;SDS011;61560;33.718;73.040;2023-03-15T05:19:52;76.55;;;43.63;;
73331;SDS011;61560;33.718;73.040;2023-03-15T05:22:25;88.22;;;46.60;;
73331;SDS011;61560;33.718;73.040;2023-03-15T05:25:11;79.60;;;45.85;;
73331;SDS011;61560;33.718;73.040;2023-03-15T05:27:56;84.30;;;43.13;;
73331;SDS011;61560;33.718;73.040;2023-03-15T05:30:51;84.18;;;46.42;;
73331;SDS011;61560;33.718;73.040;2023-03-15T05:33:40;87.18;;;44.53;;
73331;SDS011;61560;33.718;73.040;2023-03-15T05:36:32;76.95;;;38.50;;
73331;SDS011;61560;33.718;73.040;2023-03-15T05:39:27;77.43;;;37.10;;
73331;SDS011;61560;33.718;73.040;2023-03-15T05:42:04;87.28;;;43.63;;
73331;SDS011;61560;33.718;73.040;2023-03-15T05:44:48;81.53;;;38.83;;
73331;SDS011;61560;33.718;73.040;2023-03-15T05:47:28;83.15;;;41.65;;
73331;SDS011;61560;33.718;73.040;2023-03-15T05:50:24;76.68;;;38.60;;
73331;SDS011;61560;33.718;73.040;2023-03-15T05:53:09;78.57;;;39.60;;
73331;SDS011;61560;33.718;73.040;2023-03-15T05:55:55;76.03;;;40.78;;
73331;SDS011;61560;33.718;73.040;2023-03-15T05:58:50;115.50;;;58.47;;
73331;SDS011;61560;33.718;73.040;2023-03-15T06:01:17;124.97;;;65.40;;
73331;SDS011;61560;33.718;73.040;2023-03-15T06:03:59;119.13;;;67.55;;
73331;SDS011;61560;33.718;73.040;2023-03-15T06:06:29;146.50;;;84.18;;
73331;SDS011;61560;33.718;73.040;2023-03-15T06:08:55;197.07;;;103.18;;
73331;SDS011;61560;33.718;73.040;2023-03-15T06:11:22;244.00;;;117.90;;
73331;SDS011;61560;33.718;73.040;2023-03-15T06:13:49;227.73;;;117.63;;
73331;SDS011;61560;33.718;73.040;2023-03-15T06:16:30;265.20;;;126.05;;
73331;SDS011;61560;33.718;73.040;2023-03-15T06:19:00;278.38;;;129.48;;
73331;SDS011;61560;33.718;73.040;2023-03-15T06:21:28;276.65;;;126.95;;
73331;SDS011;61560;33.718;73.040;2023-03-15T06:23:55;330.02;;;138.32;;
73331;SDS011;61560;33.718;73.040;2023-03-15T06:26:25;324.37;;;138.17;;
73331;SDS011;61560;33.718;73.040;2023-03-15T06:31:23;330.77;;;138.82;;
73331;SDS011;61560;33.718;73.040;2023-03-15T06:34:00;328.25;;;137.75;;
73331;SDS011;61560;33.718;73.040;2023-03-15T06:36:28;318.95;;;135.43;;
73331;SDS011;61560;33.718;73.040;2023-03-15T06:38:55;334.55;;;138.10;;
73331;SDS011;61560;33.718;73.040;2023-03-15T06:41:26;349.63;;;140.48;;
73331;SDS011;61560;33.718;73.040;2023-03-15T06:44:00;342.75;;;139.43;;
73331;SDS011;61560;33.718;73.040;2023-03-15T06:46:27;357.42;;;142.27;;
73331;SDS011;61560;33.718;73.040;2023-03-15T06:48:54;369.90;;;144.32;;
73331;SDS011;61560;33.718;73.040;2023-03-15T06:51:24;375.98;;;147.23;;
73331;SDS011;61560;33.718;73.040;2023-03-15T06:53:51;423.10;;;156.93;;
73331;SDS011;61560;33.718;73.040;2023-03-15T06:56:18;359.90;;;143.68;;
73331;SDS011;61560;33.718;73.040;2023-03-15T06:58:44;371.10;;;146.68;;
73331;SDS011;61560;33.718;73.040;2023-03-15T07:01:12;366.27;;;144.80;;
73331;SDS011;61560;33.718;73.040;2023-03-15T07:03:42;372.75;;;144.70;;
73331;SDS011;61560;33.718;73.040;2023-03-15T07:06:08;362.45;;;142.10;;
73331;SDS011;61560;33.718;73.040;2023-03-15T07:08:35;393.20;;;148.10;;
73331;SDS011;61560;33.718;73.040;2023-03-15T07:11:01;389.05;;;147.40;;
73331;SDS011;61560;33.718;73.040;2023-03-15T07:13:28;418.20;;;153.98;;
73331;SDS011;61560;33.718;73.040;2023-03-15T07:15:56;364.55;;;141.48;;
73331;SDS011;61560;33.718;73.040;2023-03-15T07:18:23;379.35;;;144.60;;
73331;SDS011;61560;33.718;73.040;2023-03-15T07:20:56;374.05;;;144.13;;
73331;SDS011;61560;33.718;73.040;2023-03-15T07:23:24;376.88;;;144.40;;
73331;SDS011;61560;33.718;73.040;2023-03-15T07:25:53;389.23;;;147.45;;
73331;SDS011;61560;33.718;73.040;2023-03-15T07:28:20;395.42;;;148.95;;
73331;SDS011;61560;33.718;73.040;2023-03-15T07:31:00;384.85;;;146.25;;
73331;SDS011;61560;33.718;73.040;2023-03-15T07:33:29;364.83;;;143.52;;
73331;SDS011;61560;33.718;73.040;2023-03-15T07:35:58;377.65;;;145.55;;
73331;SDS011;61560;33.718;73.040;2023-03-15T07:38:25;402.75;;;149.98;;
73331;SDS011;61560;33.718;73.040;2023-03-15T07:40:57;381.48;;;146.43;;
73331;SDS011;61560;33.718;73.040;2023-03-15T07:43:26;382.38;;;147.10;;
73331;SDS011;61560;33.718;73.040;2023-03-15T07:46:05;403.40;;;150.18;;
73331;SDS011;61560;33.718;73.040;2023-03-15T07:48:33;402.90;;;151.23;;
73331;SDS011;61560;33.718;73.040;2023-03-15T07:50:59;388.65;;;147.50;;
73331;SDS011;61560;33.718;73.040;2023-03-15T07:53:26;383.38;;;147.02;;
73331;SDS011;61560;33.718;73.040;2023-03-15T07:55:52;402.90;;;149.55;;
73331;SDS011;61560;33.718;73.040;2023-03-15T07:58:21;391.70;;;146.02;;
73331;SDS011;61560;33.718;73.040;2023-03-15T08:00:47;389.85;;;146.07;;
73331;SDS011;61560;33.718;73.040;2023-03-15T08:03:14;388.40;;;146.65;;
73331;SDS011;61560;33.718;73.040;2023-03-15T08:05:44;374.55;;;143.88;;
73331;SDS011;61560;33.718;73.040;2023-03-15T08:08:13;375.13;;;143.35;;
73331;SDS011;61560;33.718;73.040;2023-03-15T08:10:40;380.33;;;143.35;;
73331;SDS011;61560;33.718;73.040;2023-03-15T08:13:11;381.80;;;144.97;;
73331;SDS011;61560;33.718;73.040;2023-03-15T08:15:43;404.23;;;148.90;;
73331;SDS011;61560;33.718;73.040;2023-03-15T08:20:45;409.00;;;150.05;;
73331;SDS011;61560;33.718;73.040;2023-03-15T08:23:24;395.05;;;146.13;;
73331;SDS011;61560;33.718;73.040;2023-03-15T08:25:51;398.35;;;148.80;;
73331;SDS011;61560;33.718;73.040;2023-03-15T08:28:22;404.00;;;149.82;;
73331;SDS011;61560;33.718;73.040;2023-03-15T08:30:48;387.23;;;145.60;;
73331;SDS011;61560;33.718;73.040;2023-03-15T08:33:26;390.40;;;145.77;;
73331;SDS011;61560;33.718;73.040;2023-03-15T08:35:59;376.13;;;143.60;;
73331;SDS011;61560;33.718;73.040;2023-03-15T08:38:26;380.08;;;145.05;;
73331;SDS011;61560;33.718;73.040;2023-03-15T08:40:55;360.05;;;140.05;;
73331;SDS011;61560;33.718;73.040;2023-03-15T08:43:23;354.85;;;137.35;;
73331;SDS011;61560;33.718;73.040;2023-03-15T08:45:49;366.17;;;140.60;;
73331;SDS011;61560;33.718;73.040;2023-03-15T08:48:18;368.77;;;141.93;;
73331;SDS011;61560;33.718;73.040;2023-03-15T08:50:47;370.70;;;141.52;;
73331;SDS011;61560;33.718;73.040;2023-03-15T08:53:18;362.38;;;140.82;;
73331;SDS011;61560;33.718;73.040;2023-03-15T08:55:47;376.02;;;143.80;;
73331;SDS011;61560;33.718;73.040;2023-03-15T08:58:14;383.48;;;144.02;;
73331;SDS011;61560;33.718;73.040;2023-03-15T09:00:41;376.67;;;144.25;;
73331;SDS011;61560;33.718;73.040;2023-03-15T09:03:07;375.67;;;143.00;;
73331;SDS011;61560;33.718;73.040;2023-03-15T09:05:38;368.42;;;142.55;;
73331;SDS011;61560;33.718;73.040;2023-03-15T09:08:04;382.25;;;145.23;;
73331;SDS011;61560;33.718;73.040;2023-03-15T09:10:33;377.33;;;143.68;;
73331;SDS011;61560;33.718;73.040;2023-03-15T09:13:02;391.30;;;146.80;;
73331;SDS011;61560;33.718;73.040;2023-03-15T09:15:28;388.65;;;145.88;;
73331;SDS011;61560;33.718;73.040;2023-03-15T09:17:55;393.98;;;146.10;;
73331;SDS011;61560;33.718;73.040;2023-03-15T09:20:22;394.77;;;146.10;;
73331;SDS011;61560;33.718;73.040;2023-03-15T09:22:53;395.33;;;146.90;;
73331;SDS011;61560;33.718;73.040;2023-03-15T09:25:25;397.25;;;147.68;;
73331;SDS011;61560;33.718;73.040;2023-03-15T09:27:54;395.10;;;146.13;;
73331;SDS011;61560;33.718;73.040;2023-03-15T09:30:22;400.05;;;146.98;;
73331;SDS011;61560;33.718;73.040;2023-03-15T09:32:48;379.30;;;142.95;;
73331;SDS011;61560;33.718;73.040;2023-03-15T09:35:17;383.98;;;143.68;;
73331;SDS011;61560;33.718;73.040;2023-03-15T09:37:47;384.58;;;143.77;;
73331;SDS011;61560;33.718;73.040;2023-03-15T09:40:31;389.52;;;144.02;;
73331;SDS011;61560;33.718;73.040;2023-03-15T09:51:01;394.27;;;145.27;;
73331;SDS011;61560;33.718;73.040;2023-03-15T09:56:21;436.02;;;154.32;;
73331;SDS011;61560;33.718;73.040;2023-03-15T09:59:04;416.02;;;149.52;;
73331;SDS011;61560;33.718;73.040;2023-03-15T10:01:33;402.60;;;148.05;;
73331;SDS011;61560;33.718;73.040;2023-03-15T10:06:54;422.33;;;151.32;;
73331;SDS011;61560;33.718;73.040;2023-03-15T10:09:24;399.20;;;146.65;;
73331;SDS011;61560;33.718;73.040;2023-03-15T10:17:31;400.92;;;146.73;;
73331;SDS011;61560;33.718;73.040;2023-03-15T10:20:11;404.52;;;147.27;;
73331;SDS011;61560;33.718;73.040;2023-03-15T10:22:46;393.55;;;145.27;;
73331;SDS011;61560;33.718;73.040;2023-03-15T10:25:25;400.20;;;145.63;;
73331;SDS011;61560;33.718;73.040;2023-03-15T10:27:58;398.00;;;146.63;;
73331;SDS011;61560;33.718;73.040;2023-03-15T10:30:35;409.02;;;148.60;;
73331;SDS011;61560;33.718;73.040;2023-03-15T10:33:42;406.92;;;147.48;;
73331;SDS011;61560;33.718;73.040;2023-03-15T10:36:51;414.80;;;149.38;;
73331;SDS011;61560;33.718;73.040;2023-03-15T10:39:15;421.83;;;151.15;;
73331;SDS011;61560;33.718;73.040;2023-03-15T10:41:42;407.17;;;148.18;;
73331;SDS011;61560;33.718;73.040;2023-03-15T10:44:13;418.75;;;150.32;;
73331;SDS011;61560;33.718;73.040;2023-03-15T10:46:49;410.25;;;149.10;;
73331;SDS011;61560;33.718;73.040;2023-03-15T10:49:57;416.77;;;149.73;;
73331;SDS011;61560;33.718;73.040;2023-03-15T10:52:25;413.63;;;148.65;;
73331;SDS011;61560;33.718;73.040;2023-03-15T10:55:03;409.48;;;148.15;;
73331;SDS011;61560;33.718;73.040;2023-03-15T10:57:38;407.33;;;148.43;;
73331;SDS011;61560;33.718;73.040;2023-03-15T11:00:31;397.80;;;146.70;;
73331;SDS011;61560;33.718;73.040;2023-03-15T11:03:05;411.77;;;149.48;;
73331;SDS011;61560;33.718;73.040;2023-03-15T11:05:45;416.13;;;150.48;;
73331;SDS011;61560;33.718;73.040;2023-03-15T11:08:16;430.80;;;153.07;;
73331;SDS011;61560;33.718;73.040;2023-03-15T11:10:44;437.20;;;154.52;;
73331;SDS011;61560;33.718;73.040;2023-03-15T11:16:32;427.50;;;151.52;;
73331;SDS011;61560;33.718;73.040;2023-03-15T11:18:56;413.13;;;147.77;;
73331;SDS011;61560;33.718;73.040;2023-03-15T11:21:29;402.40;;;146.38;;
73331;SDS011;61560;33.718;73.040;2023-03-15T11:24:00;389.90;;;143.25;;
73331;SDS011;61560;33.718;73.040;2023-03-15T11:26:32;401.60;;;146.10;;
73331;SDS011;61560;33.718;73.040;2023-03-15T11:29:13;398.45;;;145.55;;
73331;SDS011;61560;33.718;73.040;2023-03-15T11:31:49;397.05;;;144.95;;
73331;SDS011;61560;33.718;73.040;2023-03-15T11:37:03;399.80;;;145.25;;
73331;SDS011;61560;33.718;73.040;2023-03-15T11:39:53;409.23;;;146.55;;
73331;SDS011;61560;33.718;73.040;2023-03-15T11:42:33;400.02;;;145.13;;
73331;SDS011;61560;33.718;73.040;2023-03-15T11:45:05;419.67;;;148.48;;
73331;SDS011;61560;33.718;73.040;2023-03-15T11:47:57;408.58;;;146.13;;
73331;SDS011;61560;33.718;73.040;2023-03-15T11:50:27;422.10;;;148.70;;
73331;SDS011;61560;33.718;73.040;2023-03-15T11:52:54;408.95;;;146.73;;
73331;SDS011;61560;33.718;73.040;2023-03-15T11:55:27;414.80;;;147.35;;
73331;SDS011;61560;33.718;73.040;2023-03-15T11:57:54;416.27;;;147.77;;
73331;SDS011;61560;33.718;73.040;2023-03-15T12:03:45;432.10;;;152.27;;
73331;SDS011;61560;33.718;73.040;2023-03-15T12:06:12;447.08;;;154.20;;
73331;SDS011;61560;33.718;73.040;2023-03-15T12:09:37;469.27;;;160.15;;
73331;SDS011;61560;33.718;73.040;2023-03-15T12:12:00;482.33;;;161.48;;
73331;SDS011;61560;33.718;73.040;2023-03-15T12:14:32;480.48;;;162.55;;
73331;SDS011;61560;33.718;73.040;2023-03-15T12:20:00;474.45;;;161.70;;
73331;SDS011;61560;33.718;73.040;2023-03-15T12:22:41;478.55;;;163.20;;
73331;SDS011;61560;33.718;73.040;2023-03-15T12:25:19;490.50;;;165.05;;
73331;SDS011;61560;33.718;73.040;2023-03-15T12:28:06;491.70;;;165.32;;
73331;SDS011;61560;33.718;73.040;2023-03-15T12:30:44;499.35;;;169.07;;
73331;SDS011;61560;33.718;73.040;2023-03-15T12:33:19;491.00;;;166.23;;
73331;SDS011;61560;33.718;73.040;2023-03-15T12:35:49;502.40;;;169.75;;
73331;SDS011;61560;33.718;73.040;2023-03-15T12:38:17;496.23;;;168.55;;
73331;SDS011;61560;33.718;73.040;2023-03-15T12:43:42;495.75;;;167.32;;
73331;SDS011;61560;33.718;73.040;2023-03-15T12:49:10;508.63;;;173.23;;
73331;SDS011;61560;33.718;73.040;2023-03-15T12:51:44;507.05;;;170.85;;
73331;SDS011;61560;33.718;73.040;2023-03-15T12:54:22;503.42;;;169.93;;
73331;SDS011;61560;33.718;73.040;2023-03-15T12:57:00;514.95;;;173.48;;
73331;SDS011;61560;33.718;73.040;2023-03-15T14:05:24;677.15;;;225.02;;
73331;SDS011;61560;33.718;73.040;2023-03-15T14:08:04;687.60;;;226.65;;
73331;SDS011;61560;33.718;73.040;2023-03-15T14:10:41;690.00;;;231.95;;
73331;SDS011;61560;33.718;73.040;2023-03-15T14:13:15;689.20;;;230.00;;
73331;SDS011;61560;33.718;73.040;2023-03-15T14:16:00;701.17;;;233.95;;
73331;SDS011;61560;33.718;73.040;2023-03-15T14:18:40;702.05;;;233.75;;
73331;SDS011;61560;33.718;73.040;2023-03-15T14:23:40;700.00;;;234.10;;
73331;SDS011;61560;33.718;73.040;2023-03-15T14:26:11;702.50;;;233.45;;
73331;SDS011;61560;33.718;73.040;2023-03-15T14:28:38;690.70;;;230.70;;
73331;SDS011;61560;33.718;73.040;2023-03-15T14:31:11;695.83;;;232.90;;
73331;SDS011;61560;33.718;73.040;2023-03-15T14:33:52;692.83;;;232.50;;
73331;SDS011;61560;33.718;73.040;2023-03-15T14:36:31;692.47;;;232.40;;
73331;SDS011;61560;33.718;73.040;2023-03-15T14:39:17;685.80;;;231.73;;
73331;SDS011;61560;33.718;73.040;2023-03-15T14:41:59;681.83;;;229.55;;
73331;SDS011;61560;33.718;73.040;2023-03-15T14:44:29;683.58;;;227.48;;
73331;SDS011;61560;33.718;73.040;2023-03-15T14:46:59;689.78;;;231.48;;
73331;SDS011;61560;33.718;73.040;2023-03-15T14:49:27;678.03;;;228.68;;
73331;SDS011;61560;33.718;73.040;2023-03-15T14:54:27;676.53;;;230.43;;
73331;SDS011;61560;33.718;73.040;2023-03-15T14:56:55;678.65;;;230.13;;
73331;SDS011;61560;33.718;73.040;2023-03-15T14:59:22;675.90;;;229.15;;
73331;SDS011;61560;33.718;73.040;2023-03-15T15:01:49;665.10;;;225.82;;
73331;SDS011;61560;33.718;73.040;2023-03-15T15:04:18;667.75;;;227.88;;
73331;SDS011;61560;33.718;73.040;2023-03-15T15:06:46;674.70;;;226.75;;
73331;SDS011;61560;33.718;73.040;2023-03-15T15:09:18;676.35;;;226.35;;
73331;SDS011;61560;33.718;73.040;2023-03-15T15:11:50;677.20;;;227.15;;
73331;SDS011;61560;33.718;73.040;2023-03-15T15:14:17;674.35;;;226.63;;
73331;SDS011;61560;33.718;73.040;2023-03-15T15:16:45;673.60;;;228.25;;
73331;SDS011;61560;33.718;73.040;2023-03-15T15:19:11;675.08;;;226.77;;
73331;SDS011;61560;33.718;73.040;2023-03-15T15:21:39;673.65;;;226.32;;
73331;SDS011;61560;33.718;73.040;2023-03-15T15:24:16;673.28;;;226.02;;
73331;SDS011;61560;33.718;73.040;2023-03-15T15:26:45;681.30;;;229.45;;
73331;SDS011;61560;33.718;73.040;2023-03-15T15:29:12;674.95;;;227.90;;
73331;SDS011;61560;33.718;73.040;2023-03-15T15:31:41;683.83;;;228.13;;
73331;SDS011;61560;33.718;73.040;2023-03-15T15:34:09;679.33;;;227.27;;
73331;SDS011;61560;33.718;73.040;2023-03-15T15:36:38;684.83;;;229.02;;
73331;SDS011;61560;33.718;73.040;2023-03-15T15:39:21;693.67;;;233.02;;
73331;SDS011;61560;33.718;73.040;2023-03-15T15:41:52;700.15;;;233.73;;
73331;SDS011;61560;33.718;73.040;2023-03-15T15:44:20;695.70;;;235.77;;
73331;SDS011;61560;33.718;73.040;2023-03-15T15:46:49;688.05;;;230.93;;
73331;SDS011;61560;33.718;73.040;2023-03-15T15:49:16;686.05;;;231.00;;
73331;SDS011;61560;33.718;73.040;2023-03-15T15:51:46;695.38;;;232.95;;
73331;SDS011;61560;33.718;73.040;2023-03-15T15:54:19;692.67;;;232.32;;
73331;SDS011;61560;33.718;73.040;2023-03-15T15:56:53;684.92;;;229.95;;
73331;SDS011;61560;33.718;73.040;2023-03-15T15:59:22;688.92;;;230.32;;
73331;SDS011;61560;33.718;73.040;2023-03-15T16:01:50;697.05;;;235.27;;
73331;SDS011;61560;33.718;73.040;2023-03-15T16:04:18;687.95;;;232.30;;
73331;SDS011;61560;33.718;73.040;2023-03-15T16:06:52;686.95;;;231.60;;
73331;SDS011;61560;33.718;73.040;2023-03-15T16:09:21;689.88;;;231.80;;
73331;SDS011;61560;33.718;73.040;2023-03-15T16:11:51;691.10;;;231.02;;
73331;SDS011;61560;33.718;73.040;2023-03-15T16:14:21;696.00;;;232.02;;
73331;SDS011;61560;33.718;73.040;2023-03-15T16:16:47;671.42;;;224.40;;
73331;SDS011;61560;33.718;73.040;2023-03-15T16:19:14;676.45;;;224.88;;
73331;SDS011;61560;33.718;73.040;2023-03-15T16:21:41;676.70;;;225.48;;
73331;SDS011;61560;33.718;73.040;2023-03-15T16:27:04;699.33;;;234.70;;
73331;SDS011;61560;33.718;73.040;2023-03-15T16:32:04;703.53;;;234.55;;